Time;durP1;ratioP1;P1;durP2;ratioP2;P2;SDS_P1;SDS_P2;PMS_P1;PMS_P2;Temp;Humidity;BMP_temperature;BMP_pressure;BME280_temperature;BME280_humidity;BME280_pressure;Samples;Min_cycle;Max_cycle;Signal;HPM_P1;HPM_P2
2019/09/07 00:00:31;;;;;;;20.35;18.15;;;;;;;12.46;100;95513.03;;;;
2019/09/07 00:01:34;;;;;;;20.35;18.15;;;;;;;12.46;100;95513.03;;;;
2019/09/07 00:02:36;;;;;;;20.35;18.15;;;;;;;12.46;100;95513.03;;;;
2019/09/07 00:03:37;;;;;;;20.35;18.15;;;;;;;12.46;100;95513.03;;;;
2019/09/07 00:04:38;;;;;;;20.35;18.15;;;;;;;12.46;100;95513.03;;;;
2019/09/07 00:05:39;;;;;;;23.2;20.5;;;;;;;12.47;100;95504.77;;;;
2019/09/07 00:06:41;;;;;;;23.2;20.5;;;;;;;12.47;100;95504.77;;;;
2019/09/07 00:07:42;;;;;;;23.2;20.5;;;;;;;12.47;100;95504.77;;;;
2019/09/07 00:08:43;;;;;;;23.2;20.5;;;;;;;12.47;100;95504.77;;;;
2019/09/07 00:09:44;;;;;;;23.2;20.5;;;;;;;12.47;100;95504.77;;;;
2019/09/07 00:10:45;;;;;;;23.2;20.5;;;;;;;12.47;100;95504.77;;;;
2019/09/07 00:11:49;;;;;;;23.2;20.5;;;;;;;12.47;100;95504.77;;;;
2019/09/07 00:12:50;;;;;;;23.2;20.5;;;;;;;12.47;100;95504.77;;;;
2019/09/07 00:13:51;;;;;;;23.2;20.5;;;;;;;12.47;100;95504.77;;;;
2019/09/07 00:14:52;;;;;;;23.2;20.5;;;;;;;12.47;100;95504.77;;;;
2019/09/07 00:15:53;;;;;;;23.2;20.5;;;;;;;12.47;100;95504.77;;;;
2019/09/07 00:16:55;;;;;;;24.05;20.55;;;;;;;12.38;100;95501.62;;;;
2019/09/07 00:17:56;;;;;;;24.05;20.55;;;;;;;12.38;100;95501.62;;;;
2019/09/07 00:18:57;;;;;;;24.05;20.55;;;;;;;12.38;100;95501.62;;;;
2019/09/07 00:19:58;;;;;;;24.05;20.55;;;;;;;12.38;100;95501.62;;;;
2019/09/07 00:20:59;;;;;;;24.05;20.55;;;;;;;12.38;100;95501.62;;;;
2019/09/07 00:22:00;;;;;;;24.05;20.55;;;;;;;12.38;100;95501.62;;;;
2019/09/07 00:23:01;;;;;;;24.05;20.55;;;;;;;12.38;100;95501.62;;;;
2019/09/07 00:24:03;;;;;;;24.05;20.55;;;;;;;12.38;100;95501.62;;;;
2019/09/07 00:25:04;;;;;;;24.05;20.55;;;;;;;12.38;100;95501.62;;;;
2019/09/07 00:26:06;;;;;;;24.05;20.55;;;;;;;12.38;100;95501.62;;;;
2019/09/07 00:27:07;;;;;;;25.3;21.9;;;;;;;12.35;100;95496.7;;;;
2019/09/07 00:28:08;;;;;;;25.3;21.9;;;;;;;12.35;100;95496.7;;;;
2019/09/07 00:29:10;;;;;;;25.3;21.9;;;;;;;12.35;100;95496.7;;;;
2019/09/07 00:30:11;;;;;;;25.3;21.9;;;;;;;12.35;100;95496.7;;;;
2019/09/07 00:31:13;;;;;;;25.3;21.9;;;;;;;12.35;100;95496.7;;;;
2019/09/07 00:32:14;;;;;;;25.3;21.9;;;;;;;12.35;100;95496.7;;;;
2019/09/07 00:33:15;;;;;;;25.3;21.9;;;;;;;12.35;100;95496.7;;;;
2019/09/07 00:34:16;;;;;;;25.3;21.9;;;;;;;12.35;100;95496.7;;;;
2019/09/07 00:35:17;;;;;;;25.3;21.9;;;;;;;12.35;100;95496.7;;;;
2019/09/07 00:36:19;;;;;;;25.3;21.9;;;;;;;12.35;100;95496.7;;;;
2019/09/07 00:37:20;;;;;;;27;22.2;;;;;;;12.26;100;95499.08;;;;
2019/09/07 00:38:22;;;;;;;27;22.2;;;;;;;12.26;100;95499.08;;;;
2019/09/07 00:39:23;;;;;;;27;22.2;;;;;;;12.26;100;95499.08;;;;
2019/09/07 00:40:24;;;;;;;27;22.2;;;;;;;12.26;100;95499.08;;;;
2019/09/07 00:41:25;;;;;;;27;22.2;;;;;;;12.26;100;95499.08;;;;
2019/09/07 00:42:27;;;;;;;27;22.2;;;;;;;12.26;100;95499.08;;;;
2019/09/07 00:43:28;;;;;;;27;22.2;;;;;;;12.26;100;95499.08;;;;
2019/09/07 00:44:29;;;;;;;27;22.2;;;;;;;12.26;100;95499.08;;;;
2019/09/07 00:45:30;;;;;;;27;22.2;;;;;;;12.26;100;95499.08;;;;
2019/09/07 00:46:32;;;;;;;27;22.2;;;;;;;12.26;100;95499.08;;;;
2019/09/07 00:47:33;;;;;;;27;22.2;;;;;;;12.26;100;95499.08;;;;
2019/09/07 00:48:34;;;;;;;30.65;24.7;;;;;;;12.26;100;95494.09;;;;
2019/09/07 00:49:35;;;;;;;30.65;24.7;;;;;;;12.26;100;95494.09;;;;
2019/09/07 00:50:36;;;;;;;30.65;24.7;;;;;;;12.26;100;95494.09;;;;
2019/09/07 00:51:39;;;;;;;30.65;24.7;;;;;;;12.26;100;95494.09;;;;
2019/09/07 00:52:41;;;;;;;30.65;24.7;;;;;;;12.26;100;95494.09;;;;
2019/09/07 00:53:42;;;;;;;30.65;24.7;;;;;;;12.26;100;95494.09;;;;
2019/09/07 00:54:43;;;;;;;30.65;24.7;;;;;;;12.26;100;95494.09;;;;
2019/09/07 00:55:44;;;;;;;30.65;24.7;;;;;;;12.26;100;95494.09;;;;
2019/09/07 00:56:45;;;;;;;30.65;24.7;;;;;;;12.26;100;95494.09;;;;
2019/09/07 00:57:46;;;;;;;30.65;24.7;;;;;;;12.26;100;95494.09;;;;
2019/09/07 00:58:48;;;;;;;32.75;24.35;;;;;;;12.19;100;95494.34;;;;
2019/09/07 00:59:49;;;;;;;32.75;24.35;;;;;;;12.19;100;95494.34;;;;
2019/09/07 01:00:50;;;;;;;32.75;24.35;;;;;;;12.19;100;95494.34;;;;
2019/09/07 01:01:51;;;;;;;32.75;24.35;;;;;;;12.19;100;95494.34;;;;
2019/09/07 01:02:53;;;;;;;32.75;24.35;;;;;;;12.19;100;95494.34;;;;
2019/09/07 01:03:54;;;;;;;32.75;24.35;;;;;;;12.19;100;95494.34;;;;
2019/09/07 01:04:55;;;;;;;32.75;24.35;;;;;;;12.19;100;95494.34;;;;
2019/09/07 01:05:57;;;;;;;32.75;24.35;;;;;;;12.19;100;95494.34;;;;
2019/09/07 01:06:58;;;;;;;32.75;24.35;;;;;;;12.19;100;95494.34;;;;
2019/09/07 01:08:00;;;;;;;32.75;24.35;;;;;;;12.19;100;95494.34;;;;
2019/09/07 01:09:01;;;;;;;32.75;24.35;;;;;;;12.19;100;95494.34;;;;
2019/09/07 01:10:04;;;;;;;31.55;25.1;;;;;;;12.18;100;95494.04;;;;
2019/09/07 01:11:06;;;;;;;31.55;25.1;;;;;;;12.18;100;95494.04;;;;
2019/09/07 01:12:07;;;;;;;31.55;25.1;;;;;;;12.18;100;95494.04;;;;
2019/09/07 01:13:09;;;;;;;31.55;25.1;;;;;;;12.18;100;95494.04;;;;
2019/09/07 01:14:10;;;;;;;31.55;25.1;;;;;;;12.18;100;95494.04;;;;
2019/09/07 01:15:11;;;;;;;31.55;25.1;;;;;;;12.18;100;95494.04;;;;
2019/09/07 01:16:14;;;;;;;31.55;25.1;;;;;;;12.18;100;95494.04;;;;
2019/09/07 01:17:15;;;;;;;31.55;25.1;;;;;;;12.18;100;95494.04;;;;
2019/09/07 01:18:16;;;;;;;31.55;25.1;;;;;;;12.18;100;95494.04;;;;
2019/09/07 01:19:18;;;;;;;31.55;25.1;;;;;;;12.18;100;95494.04;;;;
2019/09/07 01:20:19;;;;;;;32.7;24.75;;;;;;;12.1;100;95494.44;;;;
2019/09/07 01:21:21;;;;;;;32.7;24.75;;;;;;;12.1;100;95494.44;;;;
2019/09/07 01:22:23;;;;;;;32.7;24.75;;;;;;;12.1;100;95494.44;;;;
2019/09/07 01:23:24;;;;;;;32.7;24.75;;;;;;;12.1;100;95494.44;;;;
2019/09/07 01:24:25;;;;;;;32.7;24.75;;;;;;;12.1;100;95494.44;;;;
2019/09/07 01:25:26;;;;;;;32.7;24.75;;;;;;;12.1;100;95494.44;;;;
2019/09/07 01:26:29;;;;;;;32.7;24.75;;;;;;;12.1;100;95494.44;;;;
2019/09/07 01:27:30;;;;;;;32.7;24.75;;;;;;;12.1;100;95494.44;;;;
2019/09/07 01:28:31;;;;;;;32.7;24.75;;;;;;;12.1;100;95494.44;;;;
2019/09/07 01:29:33;;;;;;;32.7;24.75;;;;;;;12.1;100;95494.44;;;;
2019/09/07 01:30:34;;;;;;;31.95;24.95;;;;;;;12.09;100;95491.83;;;;
2019/09/07 01:31:37;;;;;;;31.95;24.95;;;;;;;12.09;100;95491.83;;;;
2019/09/07 01:32:38;;;;;;;31.95;24.95;;;;;;;12.09;100;95491.83;;;;
2019/09/07 01:33:39;;;;;;;31.95;24.95;;;;;;;12.09;100;95491.83;;;;
2019/09/07 01:34:40;;;;;;;31.95;24.95;;;;;;;12.09;100;95491.83;;;;
2019/09/07 01:35:42;;;;;;;31.95;24.95;;;;;;;12.09;100;95491.83;;;;
2019/09/07 01:36:43;;;;;;;31.95;24.95;;;;;;;12.09;100;95491.83;;;;
2019/09/07 01:37:44;;;;;;;31.95;24.95;;;;;;;12.09;100;95491.83;;;;
2019/09/07 01:38:46;;;;;;;31.95;24.95;;;;;;;12.09;100;95491.83;;;;
2019/09/07 01:39:47;;;;;;;31.95;24.95;;;;;;;12.09;100;95491.83;;;;
2019/09/07 01:40:48;;;;;;;31.95;24.95;;;;;;;12.09;100;95491.83;;;;
2019/09/07 01:41:50;;;;;;;30.7;22.85;;;;;;;12.03;100;95492.4;;;;
2019/09/07 01:42:51;;;;;;;30.7;22.85;;;;;;;12.03;100;95492.4;;;;
2019/09/07 01:43:52;;;;;;;30.7;22.85;;;;;;;12.03;100;95492.4;;;;
2019/09/07 01:44:53;;;;;;;30.7;22.85;;;;;;;12.03;100;95492.4;;;;
2019/09/07 01:45:54;;;;;;;30.7;22.85;;;;;;;12.03;100;95492.4;;;;
2019/09/07 01:46:56;;;;;;;30.7;22.85;;;;;;;12.03;100;95492.4;;;;
2019/09/07 01:47:57;;;;;;;30.7;22.85;;;;;;;12.03;100;95492.4;;;;
2019/09/07 01:48:58;;;;;;;30.7;22.85;;;;;;;12.03;100;95492.4;;;;
2019/09/07 01:49:59;;;;;;;30.7;22.85;;;;;;;12.03;100;95492.4;;;;
2019/09/07 01:51:01;;;;;;;30.7;22.85;;;;;;;12.03;100;95492.4;;;;
2019/09/07 01:52:02;;;;;;;26.1;22.45;;;;;;;12.05;100;95484.86;;;;
2019/09/07 01:53:03;;;;;;;26.1;22.45;;;;;;;12.05;100;95484.86;;;;
2019/09/07 01:54:05;;;;;;;26.1;22.45;;;;;;;12.05;100;95484.86;;;;
2019/09/07 01:55:06;;;;;;;26.1;22.45;;;;;;;12.05;100;95484.86;;;;
2019/09/07 01:56:08;;;;;;;26.1;22.45;;;;;;;12.05;100;95484.86;;;;
2019/09/07 01:57:10;;;;;;;26.1;22.45;;;;;;;12.05;100;95484.86;;;;
2019/09/07 01:58:11;;;;;;;26.1;22.45;;;;;;;12.05;100;95484.86;;;;
2019/09/07 01:59:12;;;;;;;26.1;22.45;;;;;;;12.05;100;95484.86;;;;
2019/09/07 02:00:14;;;;;;;26.1;22.45;;;;;;;12.05;100;95484.86;;;;
2019/09/07 02:01:16;;;;;;;26.1;22.45;;;;;;;12.05;100;95484.86;;;;
2019/09/07 02:02:18;;;;;;;27.9;21.95;;;;;;;11.99;100;95482.69;;;;
2019/09/07 02:03:19;;;;;;;27.9;21.95;;;;;;;11.99;100;95482.69;;;;
2019/09/07 02:04:20;;;;;;;27.9;21.95;;;;;;;11.99;100;95482.69;;;;
2019/09/07 02:05:21;;;;;;;27.9;21.95;;;;;;;11.99;100;95482.69;;;;
2019/09/07 02:06:24;;;;;;;27.9;21.95;;;;;;;11.99;100;95482.69;;;;
2019/09/07 02:07:25;;;;;;;27.9;21.95;;;;;;;11.99;100;95482.69;;;;
2019/09/07 02:08:26;;;;;;;27.9;21.95;;;;;;;11.99;100;95482.69;;;;
2019/09/07 02:09:27;;;;;;;27.9;21.95;;;;;;;11.99;100;95482.69;;;;
2019/09/07 02:10:29;;;;;;;27.9;21.95;;;;;;;11.99;100;95482.69;;;;
2019/09/07 02:11:31;;;;;;;27.9;21.95;;;;;;;11.99;100;95482.69;;;;
2019/09/07 02:12:32;;;;;;;27.9;21.95;;;;;;;11.99;100;95482.69;;;;
2019/09/07 02:13:33;;;;;;;29.6;23.2;;;;;;;11.97;100;95479.3;;;;
2019/09/07 02:14:34;;;;;;;29.6;23.2;;;;;;;11.97;100;95479.3;;;;
2019/09/07 02:15:36;;;;;;;29.6;23.2;;;;;;;11.97;100;95479.3;;;;
2019/09/07 02:16:37;;;;;;;29.6;23.2;;;;;;;11.97;100;95479.3;;;;
2019/09/07 02:17:38;;;;;;;29.6;23.2;;;;;;;11.97;100;95479.3;;;;
2019/09/07 02:18:39;;;;;;;29.6;23.2;;;;;;;11.97;100;95479.3;;;;
2019/09/07 02:19:40;;;;;;;29.6;23.2;;;;;;;11.97;100;95479.3;;;;
2019/09/07 02:20:42;;;;;;;29.6;23.2;;;;;;;11.97;100;95479.3;;;;
2019/09/07 02:21:43;;;;;;;29.6;23.2;;;;;;;11.97;100;95479.3;;;;
2019/09/07 02:22:44;;;;;;;29.6;23.2;;;;;;;11.97;100;95479.3;;;;
2019/09/07 02:23:45;;;;;;;29.2;22.15;;;;;;;11.9;100;95481.84;;;;
2019/09/07 02:24:47;;;;;;;29.2;22.15;;;;;;;11.9;100;95481.84;;;;
2019/09/07 02:25:48;;;;;;;29.2;22.15;;;;;;;11.9;100;95481.84;;;;
2019/09/07 02:26:49;;;;;;;29.2;22.15;;;;;;;11.9;100;95481.84;;;;
2019/09/07 02:27:50;;;;;;;29.2;22.15;;;;;;;11.9;100;95481.84;;;;
2019/09/07 02:28:52;;;;;;;29.2;22.15;;;;;;;11.9;100;95481.84;;;;
2019/09/07 02:29:53;;;;;;;29.2;22.15;;;;;;;11.9;100;95481.84;;;;
2019/09/07 02:30:54;;;;;;;29.2;22.15;;;;;;;11.9;100;95481.84;;;;
2019/09/07 02:31:55;;;;;;;29.2;22.15;;;;;;;11.9;100;95481.84;;;;
2019/09/07 02:32:56;;;;;;;29.2;22.15;;;;;;;11.9;100;95481.84;;;;
2019/09/07 02:33:57;;;;;;;26.75;21.5;;;;;;;11.87;100;95482.73;;;;
2019/09/07 02:34:58;;;;;;;26.75;21.5;;;;;;;11.87;100;95482.73;;;;
2019/09/07 02:35:59;;;;;;;26.75;21.5;;;;;;;11.87;100;95482.73;;;;
2019/09/07 02:37:01;;;;;;;26.75;21.5;;;;;;;11.87;100;95482.73;;;;
2019/09/07 02:38:02;;;;;;;26.75;21.5;;;;;;;11.87;100;95482.73;;;;
2019/09/07 02:39:04;;;;;;;26.75;21.5;;;;;;;11.87;100;95482.73;;;;
2019/09/07 02:40:05;;;;;;;26.75;21.5;;;;;;;11.87;100;95482.73;;;;
2019/09/07 02:41:07;;;;;;;26.75;21.5;;;;;;;11.87;100;95482.73;;;;
2019/09/07 02:42:08;;;;;;;26.75;21.5;;;;;;;11.87;100;95482.73;;;;
2019/09/07 02:43:09;;;;;;;26.75;21.5;;;;;;;11.87;100;95482.73;;;;
2019/09/07 02:44:11;;;;;;;26.75;21.5;;;;;;;11.87;100;95482.73;;;;
2019/09/07 02:45:12;;;;;;;27.05;21.15;;;;;;;11.8;100;95485.14;;;;
2019/09/07 02:46:15;;;;;;;27.05;21.15;;;;;;;11.8;100;95485.14;;;;
2019/09/07 02:47:16;;;;;;;27.05;21.15;;;;;;;11.8;100;95485.14;;;;
2019/09/07 02:48:18;;;;;;;27.05;21.15;;;;;;;11.8;100;95485.14;;;;
2019/09/07 02:49:19;;;;;;;27.05;21.15;;;;;;;11.8;100;95485.14;;;;
2019/09/07 02:50:20;;;;;;;27.05;21.15;;;;;;;11.8;100;95485.14;;;;
2019/09/07 02:51:22;;;;;;;27.05;21.15;;;;;;;11.8;100;95485.14;;;;
2019/09/07 02:52:24;;;;;;;27.05;21.15;;;;;;;11.8;100;95485.14;;;;
2019/09/07 02:53:26;;;;;;;27.05;21.15;;;;;;;11.8;100;95485.14;;;;
2019/09/07 02:54:27;;;;;;;27.05;21.15;;;;;;;11.8;100;95485.14;;;;
2019/09/07 02:55:29;;;;;;;29.15;22.05;;;;;;;11.81;100;95473.38;;;;
2019/09/07 02:56:31;;;;;;;29.15;22.05;;;;;;;11.81;100;95473.38;;;;
2019/09/07 02:57:32;;;;;;;29.15;22.05;;;;;;;11.81;100;95473.38;;;;
2019/09/07 02:58:33;;;;;;;29.15;22.05;;;;;;;11.81;100;95473.38;;;;
2019/09/07 02:59:34;;;;;;;29.15;22.05;;;;;;;11.81;100;95473.38;;;;
2019/09/07 03:00:36;;;;;;;29.15;22.05;;;;;;;11.81;100;95473.38;;;;
2019/09/07 03:01:39;;;;;;;29.15;22.05;;;;;;;11.81;100;95473.38;;;;
2019/09/07 03:02:40;;;;;;;29.15;22.05;;;;;;;11.81;100;95473.38;;;;
2019/09/07 03:03:41;;;;;;;29.15;22.05;;;;;;;11.81;100;95473.38;;;;
2019/09/07 03:04:42;;;;;;;29.15;22.05;;;;;;;11.81;100;95473.38;;;;
2019/09/07 03:05:43;;;;;;;27.4;21.5;;;;;;;11.73;100;95471.45;;;;
2019/09/07 03:06:44;;;;;;;27.4;21.5;;;;;;;11.73;100;95471.45;;;;
2019/09/07 03:07:46;;;;;;;27.4;21.5;;;;;;;11.73;100;95471.45;;;;
2019/09/07 03:08:47;;;;;;;27.4;21.5;;;;;;;11.73;100;95471.45;;;;
2019/09/07 03:09:48;;;;;;;27.4;21.5;;;;;;;11.73;100;95471.45;;;;
2019/09/07 03:10:49;;;;;;;27.4;21.5;;;;;;;11.73;100;95471.45;;;;
2019/09/07 03:11:50;;;;;;;27.4;21.5;;;;;;;11.73;100;95471.45;;;;
2019/09/07 03:12:52;;;;;;;27.4;21.5;;;;;;;11.73;100;95471.45;;;;
2019/09/07 03:13:53;;;;;;;27.4;21.5;;;;;;;11.73;100;95471.45;;;;
2019/09/07 03:14:54;;;;;;;27.4;21.5;;;;;;;11.73;100;95471.45;;;;
2019/09/07 03:15:55;;;;;;;27.4;21.5;;;;;;;11.73;100;95471.45;;;;
2019/09/07 03:16:56;;;;;;;29.25;21.6;;;;;;;11.73;100;95483.09;;;;
2019/09/07 03:17:57;;;;;;;29.25;21.6;;;;;;;11.73;100;95483.09;;;;
2019/09/07 03:18:58;;;;;;;29.25;21.6;;;;;;;11.73;100;95483.09;;;;
2019/09/07 03:20:00;;;;;;;29.25;21.6;;;;;;;11.73;100;95483.09;;;;
2019/09/07 03:21:01;;;;;;;29.25;21.6;;;;;;;11.73;100;95483.09;;;;
2019/09/07 03:22:02;;;;;;;29.25;21.6;;;;;;;11.73;100;95483.09;;;;
2019/09/07 03:23:03;;;;;;;29.25;21.6;;;;;;;11.73;100;95483.09;;;;
2019/09/07 03:24:05;;;;;;;29.25;21.6;;;;;;;11.73;100;95483.09;;;;
2019/09/07 03:25:06;;;;;;;29.25;21.6;;;;;;;11.73;100;95483.09;;;;
2019/09/07 03:26:09;;;;;;;29.25;21.6;;;;;;;11.73;100;95483.09;;;;
2019/09/07 03:27:10;;;;;;;25.3;21.9;;;;;;;11.69;100;95477.87;;;;
2019/09/07 03:28:11;;;;;;;25.3;21.9;;;;;;;11.69;100;95477.87;;;;
2019/09/07 03:29:13;;;;;;;25.3;21.9;;;;;;;11.69;100;95477.87;;;;
2019/09/07 03:30:14;;;;;;;25.3;21.9;;;;;;;11.69;100;95477.87;;;;
2019/09/07 03:31:16;;;;;;;25.3;21.9;;;;;;;11.69;100;95477.87;;;;
2019/09/07 03:32:18;;;;;;;25.3;21.9;;;;;;;11.69;100;95477.87;;;;
2019/09/07 03:33:19;;;;;;;25.3;21.9;;;;;;;11.69;100;95477.87;;;;
2019/09/07 03:34:20;;;;;;;25.3;21.9;;;;;;;11.69;100;95477.87;;;;
2019/09/07 03:35:21;;;;;;;25.3;21.9;;;;;;;11.69;100;95477.87;;;;
2019/09/07 03:36:24;;;;;;;25.3;21.9;;;;;;;11.69;100;95477.87;;;;
2019/09/07 03:37:25;;;;;;;25.3;21.9;;;;;;;11.69;100;95477.87;;;;
2019/09/07 03:38:26;;;;;;;27.4;21.35;;;;;;;11.72;100;95478.77;;;;
2019/09/07 03:39:27;;;;;;;27.4;21.35;;;;;;;11.72;100;95478.77;;;;
2019/09/07 03:40:29;;;;;;;27.4;21.35;;;;;;;11.72;100;95478.77;;;;
2019/09/07 03:41:31;;;;;;;27.4;21.35;;;;;;;11.72;100;95478.77;;;;
2019/09/07 03:42:32;;;;;;;27.4;21.35;;;;;;;11.72;100;95478.77;;;;
2019/09/07 03:43:33;;;;;;;27.4;21.35;;;;;;;11.72;100;95478.77;;;;
2019/09/07 03:44:34;;;;;;;27.4;21.35;;;;;;;11.72;100;95478.77;;;;
2019/09/07 03:45:35;;;;;;;27.4;21.35;;;;;;;11.72;100;95478.77;;;;
2019/09/07 03:46:37;;;;;;;27.4;21.35;;;;;;;11.72;100;95478.77;;;;
2019/09/07 03:47:39;;;;;;;27.4;21.35;;;;;;;11.72;100;95478.77;;;;
2019/09/07 03:48:40;;;;;;;26.45;21;;;;;;;11.68;100;95474.88;;;;
2019/09/07 03:49:41;;;;;;;26.45;21;;;;;;;11.68;100;95474.88;;;;
2019/09/07 03:50:42;;;;;;;26.45;21;;;;;;;11.68;100;95474.88;;;;
2019/09/07 03:51:44;;;;;;;26.45;21;;;;;;;11.68;100;95474.88;;;;
2019/09/07 03:52:45;;;;;;;26.45;21;;;;;;;11.68;100;95474.88;;;;
2019/09/07 03:53:46;;;;;;;26.45;21;;;;;;;11.68;100;95474.88;;;;
2019/09/07 03:54:47;;;;;;;26.45;21;;;;;;;11.68;100;95474.88;;;;
2019/09/07 03:55:48;;;;;;;26.45;21;;;;;;;11.68;100;95474.88;;;;
2019/09/07 03:56:50;;;;;;;26.45;21;;;;;;;11.68;100;95474.88;;;;
2019/09/07 03:57:51;;;;;;;26.45;21;;;;;;;11.68;100;95474.88;;;;
2019/09/07 03:58:52;;;;;;;28.3;21.5;;;;;;;11.69;100;95476.51;;;;
2019/09/07 03:59:53;;;;;;;28.3;21.5;;;;;;;11.69;100;95476.51;;;;
2019/09/07 04:00:55;;;;;;;28.3;21.5;;;;;;;11.69;100;95476.51;;;;
2019/09/07 04:01:56;;;;;;;28.3;21.5;;;;;;;11.69;100;95476.51;;;;
2019/09/07 04:02:57;;;;;;;28.3;21.5;;;;;;;11.69;100;95476.51;;;;
2019/09/07 04:03:58;;;;;;;28.3;21.5;;;;;;;11.69;100;95476.51;;;;
2019/09/07 04:05:00;;;;;;;28.3;21.5;;;;;;;11.69;100;95476.51;;;;
2019/09/07 04:06:01;;;;;;;28.3;21.5;;;;;;;11.69;100;95476.51;;;;
2019/09/07 04:07:02;;;;;;;28.3;21.5;;;;;;;11.69;100;95476.51;;;;
2019/09/07 04:08:04;;;;;;;28.3;21.5;;;;;;;11.69;100;95476.51;;;;
2019/09/07 04:09:05;;;;;;;28.3;21.5;;;;;;;11.69;100;95476.51;;;;
2019/09/07 04:10:07;;;;;;;27.2;21.5;;;;;;;11.68;100;95478.11;;;;
2019/09/07 04:11:09;;;;;;;27.2;21.5;;;;;;;11.68;100;95478.11;;;;
2019/09/07 04:12:10;;;;;;;27.2;21.5;;;;;;;11.68;100;95478.11;;;;
2019/09/07 04:13:11;;;;;;;27.2;21.5;;;;;;;11.68;100;95478.11;;;;
2019/09/07 04:14:13;;;;;;;27.2;21.5;;;;;;;11.68;100;95478.11;;;;
2019/09/07 04:15:14;;;;;;;27.2;21.5;;;;;;;11.68;100;95478.11;;;;
2019/09/07 04:16:20;;;;;;;27.2;21.5;;;;;;;11.68;100;95478.11;;;;
2019/09/07 04:17:21;;;;;;;27.2;21.5;;;;;;;11.68;100;95478.11;;;;
2019/09/07 04:18:22;;;;;;;27.2;21.5;;;;;;;11.68;100;95478.11;;;;
2019/09/07 04:19:24;;;;;;;27.2;21.5;;;;;;;11.68;100;95478.11;;;;
2019/09/07 04:20:25;;;;;;;25.9;21.85;;;;;;;11.72;100;95472.11;;;;
2019/09/07 04:21:28;;;;;;;25.9;21.85;;;;;;;11.72;100;95472.11;;;;
2019/09/07 04:22:29;;;;;;;25.9;21.85;;;;;;;11.72;100;95472.11;;;;
2019/09/07 04:23:30;;;;;;;25.9;21.85;;;;;;;11.72;100;95472.11;;;;
2019/09/07 04:24:32;;;;;;;25.9;21.85;;;;;;;11.72;100;95472.11;;;;
2019/09/07 04:25:33;;;;;;;25.9;21.85;;;;;;;11.72;100;95472.11;;;;
2019/09/07 04:26:35;;;;;;;25.9;21.85;;;;;;;11.72;100;95472.11;;;;
2019/09/07 04:27:36;;;;;;;25.9;21.85;;;;;;;11.72;100;95472.11;;;;
2019/09/07 04:28:38;;;;;;;25.9;21.85;;;;;;;11.72;100;95472.11;;;;
2019/09/07 04:29:39;;;;;;;25.9;21.85;;;;;;;11.72;100;95472.11;;;;
2019/09/07 04:30:40;;;;;;;27.35;21.4;;;;;;;11.69;100;95474.78;;;;
2019/09/07 04:31:44;;;;;;;27.35;21.4;;;;;;;11.69;100;95474.78;;;;
2019/09/07 04:32:45;;;;;;;27.35;21.4;;;;;;;11.69;100;95474.78;;;;
2019/09/07 04:33:47;;;;;;;27.35;21.4;;;;;;;11.69;100;95474.78;;;;
2019/09/07 04:34:48;;;;;;;27.35;21.4;;;;;;;11.69;100;95474.78;;;;
2019/09/07 04:35:49;;;;;;;27.35;21.4;;;;;;;11.69;100;95474.78;;;;
2019/09/07 04:36:51;;;;;;;27.35;21.4;;;;;;;11.69;100;95474.78;;;;
2019/09/07 04:37:52;;;;;;;27.35;21.4;;;;;;;11.69;100;95474.78;;;;
2019/09/07 04:38:53;;;;;;;27.35;21.4;;;;;;;11.69;100;95474.78;;;;
2019/09/07 04:39:54;;;;;;;27.35;21.4;;;;;;;11.69;100;95474.78;;;;
2019/09/07 04:40:55;;;;;;;27.35;21.4;;;;;;;11.69;100;95474.78;;;;
2019/09/07 04:41:56;;;;;;;27.35;21.4;;;;;;;11.69;100;95474.78;;;;
2019/09/07 04:42:58;;;;;;;27.35;21.4;;;;;;;11.69;100;95474.78;;;;
2019/09/07 04:43:59;;;;;;;27.35;21.4;;;;;;;11.69;100;95474.78;;;;
2019/09/07 04:45:00;;;;;;;27.35;21.4;;;;;;;11.69;100;95474.78;;;;
2019/09/07 04:46:03;;;;;;;27.35;21.4;;;;;;;11.69;100;95474.78;;;;
2019/09/07 04:47:04;;;;;;;27.35;21.4;;;;;;;11.69;100;95474.78;;;;
2019/09/07 04:48:05;;;;;;;27.35;21.4;;;;;;;11.69;100;95474.78;;;;
2019/09/07 04:49:07;;;;;;;27.35;21.4;;;;;;;11.69;100;95474.78;;;;
2019/09/07 04:50:08;;;;;;;27.35;21.4;;;;;;;11.69;100;95474.78;;;;
2019/09/07 04:51:10;;;;;;;27.35;21.4;;;;;;;11.69;100;95474.78;;;;
2019/09/07 04:52:11;;;;;;;27.45;21.85;;;;;;;11.78;100;95481.05;;;;
2019/09/07 04:53:13;;;;;;;27.45;21.85;;;;;;;11.78;100;95481.05;;;;
2019/09/07 04:54:14;;;;;;;27.45;21.85;;;;;;;11.78;100;95481.05;;;;
2019/09/07 04:55:15;;;;;;;27.45;21.85;;;;;;;11.78;100;95481.05;;;;
2019/09/07 04:56:18;;;;;;;27.45;21.85;;;;;;;11.78;100;95481.05;;;;
2019/09/07 04:57:20;;;;;;;27.45;21.85;;;;;;;11.78;100;95481.05;;;;
2019/09/07 04:58:21;;;;;;;27.45;21.85;;;;;;;11.78;100;95481.05;;;;
2019/09/07 04:59:22;;;;;;;27.45;21.85;;;;;;;11.78;100;95481.05;;;;
2019/09/07 05:00:23;;;;;;;27.45;21.85;;;;;;;11.78;100;95481.05;;;;
2019/09/07 05:01:26;;;;;;;27.45;21.85;;;;;;;11.78;100;95481.05;;;;
2019/09/07 05:02:27;;;;;;;27.45;21.85;;;;;;;11.78;100;95481.05;;;;
2019/09/07 05:03:29;;;;;;;27.55;22.1;;;;;;;11.79;100;95487.56;;;;
2019/09/07 05:04:30;;;;;;;27.55;22.1;;;;;;;11.79;100;95487.56;;;;
2019/09/07 05:05:31;;;;;;;27.55;22.1;;;;;;;11.79;100;95487.56;;;;
2019/09/07 05:06:33;;;;;;;27.55;22.1;;;;;;;11.79;100;95487.56;;;;
2019/09/07 05:07:34;;;;;;;27.55;22.1;;;;;;;11.79;100;95487.56;;;;
2019/09/07 05:08:35;;;;;;;27.55;22.1;;;;;;;11.79;100;95487.56;;;;
2019/09/07 05:09:36;;;;;;;27.55;22.1;;;;;;;11.79;100;95487.56;;;;
2019/09/07 05:10:37;;;;;;;27.55;22.1;;;;;;;11.79;100;95487.56;;;;
2019/09/07 05:11:39;;;;;;;27.55;22.1;;;;;;;11.79;100;95487.56;;;;
2019/09/07 05:12:40;;;;;;;27.55;22.1;;;;;;;11.79;100;95487.56;;;;
2019/09/07 05:13:41;;;;;;;29.5;22.25;;;;;;;11.79;100;95487.16;;;;
2019/09/07 05:14:43;;;;;;;29.5;22.25;;;;;;;11.79;100;95487.16;;;;
2019/09/07 05:15:44;;;;;;;29.5;22.25;;;;;;;11.79;100;95487.16;;;;
2019/09/07 05:16:45;;;;;;;29.5;22.25;;;;;;;11.79;100;95487.16;;;;
2019/09/07 05:17:46;;;;;;;29.5;22.25;;;;;;;11.79;100;95487.16;;;;
2019/09/07 05:18:48;;;;;;;29.5;22.25;;;;;;;11.79;100;95487.16;;;;
2019/09/07 05:19:49;;;;;;;29.5;22.25;;;;;;;11.79;100;95487.16;;;;
2019/09/07 05:20:50;;;;;;;29.5;22.25;;;;;;;11.79;100;95487.16;;;;
2019/09/07 05:21:51;;;;;;;29.5;22.25;;;;;;;11.79;100;95487.16;;;;
2019/09/07 05:22:52;;;;;;;29.5;22.25;;;;;;;11.79;100;95487.16;;;;
2019/09/07 05:23:53;;;;;;;28.35;22.05;;;;;;;11.87;100;95495.43;;;;
2019/09/07 05:24:55;;;;;;;28.35;22.05;;;;;;;11.87;100;95495.43;;;;
2019/09/07 05:25:56;;;;;;;28.35;22.05;;;;;;;11.87;100;95495.43;;;;
2019/09/07 05:26:57;;;;;;;28.35;22.05;;;;;;;11.87;100;95495.43;;;;
2019/09/07 05:27:58;;;;;;;28.35;22.05;;;;;;;11.87;100;95495.43;;;;
2019/09/07 05:28:59;;;;;;;28.35;22.05;;;;;;;11.87;100;95495.43;;;;
2019/09/07 05:30:00;;;;;;;28.35;22.05;;;;;;;11.87;100;95495.43;;;;
2019/09/07 05:31:02;;;;;;;28.35;22.05;;;;;;;11.87;100;95495.43;;;;
2019/09/07 05:32:03;;;;;;;28.35;22.05;;;;;;;11.87;100;95495.43;;;;
2019/09/07 05:33:05;;;;;;;28.35;22.05;;;;;;;11.87;100;95495.43;;;;
2019/09/07 05:34:06;;;;;;;28.35;22.05;;;;;;;11.87;100;95495.43;;;;
2019/09/07 05:35:07;;;;;;;26.45;21;;;;;;;11.88;100;95501.54;;;;
2019/09/07 05:36:09;;;;;;;26.45;21;;;;;;;11.88;100;95501.54;;;;
2019/09/07 05:37:10;;;;;;;26.45;21;;;;;;;11.88;100;95501.54;;;;
2019/09/07 05:38:12;;;;;;;26.45;21;;;;;;;11.88;100;95501.54;;;;
2019/09/07 05:39:13;;;;;;;26.45;21;;;;;;;11.88;100;95501.54;;;;
2019/09/07 05:40:14;;;;;;;26.45;21;;;;;;;11.88;100;95501.54;;;;
2019/09/07 05:41:17;;;;;;;26.45;21;;;;;;;11.88;100;95501.54;;;;
2019/09/07 05:42:18;;;;;;;26.45;21;;;;;;;11.88;100;95501.54;;;;
2019/09/07 05:43:19;;;;;;;26.45;21;;;;;;;11.88;100;95501.54;;;;
2019/09/07 05:44:20;;;;;;;26.45;21;;;;;;;11.88;100;95501.54;;;;
2019/09/07 05:45:21;;;;;;;28.9;21.35;;;;;;;11.95;100;95510.35;;;;
2019/09/07 05:46:23;;;;;;;28.9;21.35;;;;;;;11.95;100;95510.35;;;;
2019/09/07 05:47:24;;;;;;;28.9;21.35;;;;;;;11.95;100;95510.35;;;;
2019/09/07 05:48:25;;;;;;;28.9;21.35;;;;;;;11.95;100;95510.35;;;;
2019/09/07 05:49:26;;;;;;;28.9;21.35;;;;;;;11.95;100;95510.35;;;;
2019/09/07 05:50:27;;;;;;;28.9;21.35;;;;;;;11.95;100;95510.35;;;;
2019/09/07 05:51:29;;;;;;;28.9;21.35;;;;;;;11.95;100;95510.35;;;;
2019/09/07 05:52:30;;;;;;;28.9;21.35;;;;;;;11.95;100;95510.35;;;;
2019/09/07 05:53:32;;;;;;;28.9;21.35;;;;;;;11.95;100;95510.35;;;;
2019/09/07 05:54:33;;;;;;;28.9;21.35;;;;;;;11.95;100;95510.35;;;;
2019/09/07 05:55:34;;;;;;;28.9;21.35;;;;;;;11.95;100;95510.35;;;;
2019/09/07 05:56:36;;;;;;;24.8;20.85;;;;;;;11.99;100;95508.29;;;;
2019/09/07 05:57:37;;;;;;;24.8;20.85;;;;;;;11.99;100;95508.29;;;;
2019/09/07 05:58:38;;;;;;;24.8;20.85;;;;;;;11.99;100;95508.29;;;;
2019/09/07 05:59:39;;;;;;;24.8;20.85;;;;;;;11.99;100;95508.29;;;;
2019/09/07 06:00:41;;;;;;;24.8;20.85;;;;;;;11.99;100;95508.29;;;;
2019/09/07 06:01:43;;;;;;;24.8;20.85;;;;;;;11.99;100;95508.29;;;;
2019/09/07 06:02:44;;;;;;;24.8;20.85;;;;;;;11.99;100;95508.29;;;;
2019/09/07 06:03:45;;;;;;;24.8;20.85;;;;;;;11.99;100;95508.29;;;;
2019/09/07 06:04:46;;;;;;;24.8;20.85;;;;;;;11.99;100;95508.29;;;;
2019/09/07 06:05:47;;;;;;;24.8;20.85;;;;;;;11.99;100;95508.29;;;;
2019/09/07 06:06:49;;;;;;;24.8;20.45;;;;;;;12.13;100;95512.06;;;;
2019/09/07 06:07:50;;;;;;;24.8;20.45;;;;;;;12.13;100;95512.06;;;;
2019/09/07 06:08:51;;;;;;;24.8;20.45;;;;;;;12.13;100;95512.06;;;;
2019/09/07 06:09:52;;;;;;;24.8;20.45;;;;;;;12.13;100;95512.06;;;;